sensor_id;sensor_type;location;lat;lon;timestamp;temperature;humidity
31729;DHT22;18309;43.658;1.312;2024-02-15T00:01:31;14.40;99.90
31729;DHT22;18309;43.658;1.312;2024-02-15T00:03:56;14.40;99.90
31729;DHT22;18309;43.658;1.312;2024-02-15T00:06:22;14.40;99.90
31729;DHT22;18309;43.658;1.312;2024-02-15T00:08:48;14.40;99.90
31729;DHT22;18309;43.658;1.312;2024-02-15T00:11:17;14.40;99.90
31729;DHT22;18309;43.658;1.312;2024-02-15T00:13:43;14.40;99.90
31729;DHT22;18309;43.658;1.312;2024-02-15T00:16:15;14.40;99.90
31729;DHT22;18309;43.658;1.312;2024-02-15T00:18:41;14.40;99.90
31729;DHT22;18309;43.658;1.312;2024-02-15T00:21:07;14.40;99.90
31729;DHT22;18309;43.658;1.312;2024-02-15T00:23:33;14.40;99.90
31729;DHT22;18309;43.658;1.312;2024-02-15T00:25:59;14.40;99.90
31729;DHT22;18309;43.658;1.312;2024-02-15T00:28:24;14.40;99.90
31729;DHT22;18309;43.658;1.312;2024-02-15T00:30:52;14.40;99.90
31729;DHT22;18309;43.658;1.312;2024-02-15T00:33:18;14.40;99.90
31729;DHT22;18309;43.658;1.312;2024-02-15T00:35:44;14.40;99.90
31729;DHT22;18309;43.658;1.312;2024-02-15T00:38:09;14.30;99.90
31729;DHT22;18309;43.658;1.312;2024-02-15T00:40:35;14.30;99.90
31729;DHT22;18309;43.658;1.312;2024-02-15T00:43:01;14.30;99.90
31729;DHT22;18309;43.658;1.312;2024-02-15T00:45:27;14.30;99.90
31729;DHT22;18309;43.658;1.312;2024-02-15T00:47:52;14.30;99.90
31729;DHT22;18309;43.658;1.312;2024-02-15T00:50:19;14.30;99.90
31729;DHT22;18309;43.658;1.312;2024-02-15T00:52:45;14.30;99.90
31729;DHT22;18309;43.658;1.312;2024-02-15T00:55:11;14.30;99.90
31729;DHT22;18309;43.658;1.312;2024-02-15T00:57:36;14.30;99.90
31729;DHT22;18309;43.658;1.312;2024-02-15T01:00:03;14.30;99.90
31729;DHT22;18309;43.658;1.312;2024-02-15T01:02:31;14.30;99.90
31729;DHT22;18309;43.658;1.312;2024-02-15T01:04:57;14.30;99.90
31729;DHT22;18309;43.658;1.312;2024-02-15T01:07:24;14.20;99.90
31729;DHT22;18309;43.658;1.312;2024-02-15T01:09:53;14.20;99.90
31729;DHT22;18309;43.658;1.312;2024-02-15T01:12:19;14.20;99.90
31729;DHT22;18309;43.658;1.312;2024-02-15T01:14:46;14.20;99.90
31729;DHT22;18309;43.658;1.312;2024-02-15T01:17:12;14.20;99.90
31729;DHT22;18309;43.658;1.312;2024-02-15T01:19:37;14.20;99.90
31729;DHT22;18309;43.658;1.312;2024-02-15T01:22:03;14.20;99.90
31729;DHT22;18309;43.658;1.312;2024-02-15T01:24:29;14.20;99.90
31729;DHT22;18309;43.658;1.312;2024-02-15T01:26:55;14.10;99.90
31729;DHT22;18309;43.658;1.312;2024-02-15T01:29:21;14.10;99.90
31729;DHT22;18309;43.658;1.312;2024-02-15T01:31:47;14.10;99.90
31729;DHT22;18309;43.658;1.312;2024-02-15T01:34:12;14.10;99.90
31729;DHT22;18309;43.658;1.312;2024-02-15T01:36:38;14.00;99.90
31729;DHT22;18309;43.658;1.312;2024-02-15T01:39:04;14.00;99.90
31729;DHT22;18309;43.658;1.312;2024-02-15T01:41:30;14.10;99.90
31729;DHT22;18309;43.658;1.312;2024-02-15T01:43:55;14.00;99.90
31729;DHT22;18309;43.658;1.312;2024-02-15T01:46:21;14.10;99.90
31729;DHT22;18309;43.658;1.312;2024-02-15T01:48:47;14.00;99.90
31729;DHT22;18309;43.658;1.312;2024-02-15T01:51:14;13.90;99.90
31729;DHT22;18309;43.658;1.312;2024-02-15T01:53:42;14.00;99.90
31729;DHT22;18309;43.658;1.312;2024-02-15T01:56:08;14.00;99.90
31729;DHT22;18309;43.658;1.312;2024-02-15T01:58:34;14.00;99.90
31729;DHT22;18309;43.658;1.312;2024-02-15T02:01:01;14.00;99.90
31729;DHT22;18309;43.658;1.312;2024-02-15T02:03:27;14.00;99.90
31729;DHT22;18309;43.658;1.312;2024-02-15T02:05:53;14.00;99.90
31729;DHT22;18309;43.658;1.312;2024-02-15T02:08:18;14.00;99.90
31729;DHT22;18309;43.658;1.312;2024-02-15T02:10:44;13.90;99.90
31729;DHT22;18309;43.658;1.312;2024-02-15T02:13:11;13.90;99.90
31729;DHT22;18309;43.658;1.312;2024-02-15T02:15:37;13.90;99.90
31729;DHT22;18309;43.658;1.312;2024-02-15T02:18:03;13.90;99.90
31729;DHT22;18309;43.658;1.312;2024-02-15T02:20:31;13.90;99.90
31729;DHT22;18309;43.658;1.312;2024-02-15T02:23:18;13.90;99.90
31729;DHT22;18309;43.658;1.312;2024-02-15T02:25:48;13.90;99.90
31729;DHT22;18309;43.658;1.312;2024-02-15T02:28:15;13.90;99.90
31729;DHT22;18309;43.658;1.312;2024-02-15T02:30:43;13.90;99.90
31729;DHT22;18309;43.658;1.312;2024-02-15T02:33:13;13.90;99.90
31729;DHT22;18309;43.658;1.312;2024-02-15T02:35:47;13.80;99.90
31729;DHT22;18309;43.658;1.312;2024-02-15T02:38:14;13.80;99.90
31729;DHT22;18309;43.658;1.312;2024-02-15T02:40:40;13.80;99.90
31729;DHT22;18309;43.658;1.312;2024-02-15T02:43:06;13.80;99.90
31729;DHT22;18309;43.658;1.312;2024-02-15T02:45:32;13.80;99.90
31729;DHT22;18309;43.658;1.312;2024-02-15T02:47:58;13.80;99.90
31729;DHT22;18309;43.658;1.312;2024-02-15T02:50:24;13.80;99.90
31729;DHT22;18309;43.658;1.312;2024-02-15T02:52:50;13.80;99.90
31729;DHT22;18309;43.658;1.312;2024-02-15T02:55:17;13.80;99.90
31729;DHT22;18309;43.658;1.312;2024-02-15T02:57:42;13.80;99.90
31729;DHT22;18309;43.658;1.312;2024-02-15T03:00:10;13.70;99.90
31729;DHT22;18309;43.658;1.312;2024-02-15T03:02:45;13.70;99.90
31729;DHT22;18309;43.658;1.312;2024-02-15T03:05:11;13.70;99.90
31729;DHT22;18309;43.658;1.312;2024-02-15T03:07:38;13.70;99.90
31729;DHT22;18309;43.658;1.312;2024-02-15T03:10:06;13.70;99.90
31729;DHT22;18309;43.658;1.312;2024-02-15T03:12:37;13.70;99.90
31729;DHT22;18309;43.658;1.312;2024-02-15T03:15:04;13.70;99.90
31729;DHT22;18309;43.658;1.312;2024-02-15T03:17:30;13.60;99.90
31729;DHT22;18309;43.658;1.312;2024-02-15T03:19:57;13.60;99.90
31729;DHT22;18309;43.658;1.312;2024-02-15T03:22:23;13.60;99.90
31729;DHT22;18309;43.658;1.312;2024-02-15T03:24:50;13.60;99.90
31729;DHT22;18309;43.658;1.312;2024-02-15T03:27:16;13.60;99.90
31729;DHT22;18309;43.658;1.312;2024-02-15T03:29:42;13.60;99.90
31729;DHT22;18309;43.658;1.312;2024-02-15T03:32:08;13.60;99.90
31729;DHT22;18309;43.658;1.312;2024-02-15T03:34:36;13.60;99.90
31729;DHT22;18309;43.658;1.312;2024-02-15T03:37:02;13.50;99.90
31729;DHT22;18309;43.658;1.312;2024-02-15T03:39:29;13.50;99.90
31729;DHT22;18309;43.658;1.312;2024-02-15T03:41:55;13.50;99.90
31729;DHT22;18309;43.658;1.312;2024-02-15T03:44:23;13.60;99.90
31729;DHT22;18309;43.658;1.312;2024-02-15T03:46:51;13.50;99.90
31729;DHT22;18309;43.658;1.312;2024-02-15T03:49:20;13.50;99.90
31729;DHT22;18309;43.658;1.312;2024-02-15T03:51:48;13.50;99.90
31729;DHT22;18309;43.658;1.312;2024-02-15T03:54:14;13.50;99.90
31729;DHT22;18309;43.658;1.312;2024-02-15T03:56:50;13.50;99.90
31729;DHT22;18309;43.658;1.312;2024-02-15T03:59:20;13.50;99.90
31729;DHT22;18309;43.658;1.312;2024-02-15T04:01:55;13.50;99.90
31729;DHT22;18309;43.658;1.312;2024-02-15T04:04:22;13.50;99.90
31729;DHT22;18309;43.658;1.312;2024-02-15T04:06:50;13.50;99.90
31729;DHT22;18309;43.658;1.312;2024-02-15T04:09:19;13.50;99.90
31729;DHT22;18309;43.658;1.312;2024-02-15T04:11:47;13.40;99.90
31729;DHT22;18309;43.658;1.312;2024-02-15T04:14:16;13.40;99.90
31729;DHT22;18309;43.658;1.312;2024-02-15T04:16:44;13.50;99.90
31729;DHT22;18309;43.658;1.312;2024-02-15T04:19:10;13.40;99.90
31729;DHT22;18309;43.658;1.312;2024-02-15T04:21:36;13.40;99.90
31729;DHT22;18309;43.658;1.312;2024-02-15T04:24:03;13.40;99.90
31729;DHT22;18309;43.658;1.312;2024-02-15T04:26:30;13.50;99.90
31729;DHT22;18309;43.658;1.312;2024-02-15T04:28:58;13.40;99.90
31729;DHT22;18309;43.658;1.312;2024-02-15T04:31:24;13.40;99.90
31729;DHT22;18309;43.658;1.312;2024-02-15T04:33:55;13.40;99.90
31729;DHT22;18309;43.658;1.312;2024-02-15T04:36:21;13.40;99.90
31729;DHT22;18309;43.658;1.312;2024-02-15T04:38:51;13.40;99.90
31729;DHT22;18309;43.658;1.312;2024-02-15T04:41:20;13.40;99.90
31729;DHT22;18309;43.658;1.312;2024-02-15T04:43:49;13.30;99.90
31729;DHT22;18309;43.658;1.312;2024-02-15T04:46:15;13.30;99.90
31729;DHT22;18309;43.658;1.312;2024-02-15T04:48:41;13.30;99.90
31729;DHT22;18309;43.658;1.312;2024-02-15T04:51:09;13.30;99.90
31729;DHT22;18309;43.658;1.312;2024-02-15T04:53:36;13.30;99.90
31729;DHT22;18309;43.658;1.312;2024-02-15T04:56:04;13.30;99.90
31729;DHT22;18309;43.658;1.312;2024-02-15T04:58:35;13.30;99.90
31729;DHT22;18309;43.658;1.312;2024-02-15T05:01:02;13.30;99.90
31729;DHT22;18309;43.658;1.312;2024-02-15T05:03:33;13.20;99.90
31729;DHT22;18309;43.658;1.312;2024-02-15T05:06:01;13.20;99.90
31729;DHT22;18309;43.658;1.312;2024-02-15T05:08:26;13.20;99.90
31729;DHT22;18309;43.658;1.312;2024-02-15T05:10:53;13.20;99.90
31729;DHT22;18309;43.658;1.312;2024-02-15T05:13:24;13.20;99.90
31729;DHT22;18309;43.658;1.312;2024-02-15T05:15:49;13.20;99.90
31729;DHT22;18309;43.658;1.312;2024-02-15T05:18:15;13.30;99.90
31729;DHT22;18309;43.658;1.312;2024-02-15T05:20:42;13.30;99.90
31729;DHT22;18309;43.658;1.312;2024-02-15T05:23:08;13.30;99.90
31729;DHT22;18309;43.658;1.312;2024-02-15T05:25:34;13.20;99.90
31729;DHT22;18309;43.658;1.312;2024-02-15T05:28:01;13.20;99.90
31729;DHT22;18309;43.658;1.312;2024-02-15T05:30:27;13.20;99.90
31729;DHT22;18309;43.658;1.312;2024-02-15T05:32:52;13.20;99.90
31729;DHT22;18309;43.658;1.312;2024-02-15T05:35:19;13.20;99.90
31729;DHT22;18309;43.658;1.312;2024-02-15T05:37:44;13.20;99.90
31729;DHT22;18309;43.658;1.312;2024-02-15T05:40:12;13.20;99.90
31729;DHT22;18309;43.658;1.312;2024-02-15T05:42:43;13.20;99.90
31729;DHT22;18309;43.658;1.312;2024-02-15T05:47:55;13.10;99.90
31729;DHT22;18309;43.658;1.312;2024-02-15T05:50:21;13.20;99.90
31729;DHT22;18309;43.658;1.312;2024-02-15T05:52:47;13.10;99.90
31729;DHT22;18309;43.658;1.312;2024-02-15T05:55:13;13.10;99.90
31729;DHT22;18309;43.658;1.312;2024-02-15T05:57:43;13.10;99.90
31729;DHT22;18309;43.658;1.312;2024-02-15T06:00:09;13.10;99.90
31729;DHT22;18309;43.658;1.312;2024-02-15T06:02:35;13.10;99.90
31729;DHT22;18309;43.658;1.312;2024-02-15T06:05:01;13.10;99.90
31729;DHT22;18309;43.658;1.312;2024-02-15T06:07:28;13.10;99.90
31729;DHT22;18309;43.658;1.312;2024-02-15T06:09:54;13.10;99.90
31729;DHT22;18309;43.658;1.312;2024-02-15T06:12:20;13.10;99.90
31729;DHT22;18309;43.658;1.312;2024-02-15T06:14:46;13.10;99.90
31729;DHT22;18309;43.658;1.312;2024-02-15T06:17:12;13.10;99.90
31729;DHT22;18309;43.658;1.312;2024-02-15T06:19:37;13.10;99.90
31729;DHT22;18309;43.658;1.312;2024-02-15T06:22:03;13.20;99.90
31729;DHT22;18309;43.658;1.312;2024-02-15T06:24:30;13.20;99.90
31729;DHT22;18309;43.658;1.312;2024-02-15T06:26:55;13.20;99.90
31729;DHT22;18309;43.658;1.312;2024-02-15T06:29:25;13.20;99.90
31729;DHT22;18309;43.658;1.312;2024-02-15T06:32:10;13.10;99.90
31729;DHT22;18309;43.658;1.312;2024-02-15T06:34:54;13.20;99.90
31729;DHT22;18309;43.658;1.312;2024-02-15T06:37:39;13.10;99.90
31729;DHT22;18309;43.658;1.312;2024-02-15T06:40:24;13.10;99.90
31729;DHT22;18309;43.658;1.312;2024-02-15T06:42:50;13.20;99.90
31729;DHT22;18309;43.658;1.312;2024-02-15T06:45:16;13.20;99.90
31729;DHT22;18309;43.658;1.312;2024-02-15T06:47:43;13.20;99.90
31729;DHT22;18309;43.658;1.312;2024-02-15T06:50:11;13.20;99.90
31729;DHT22;18309;43.658;1.312;2024-02-15T06:52:37;13.20;99.90
31729;DHT22;18309;43.658;1.312;2024-02-15T06:55:06;13.20;99.90
31729;DHT22;18309;43.658;1.312;2024-02-15T06:57:33;13.20;99.90
31729;DHT22;18309;43.658;1.312;2024-02-15T07:00:05;13.20;99.90
31729;DHT22;18309;43.658;1.312;2024-02-15T07:02:35;13.20;99.90
31729;DHT22;18309;43.658;1.312;2024-02-15T07:05:00;13.20;99.90
31729;DHT22;18309;43.658;1.312;2024-02-15T07:07:28;13.20;99.90
31729;DHT22;18309;43.658;1.312;2024-02-15T07:09:53;13.20;99.90
31729;DHT22;18309;43.658;1.312;2024-02-15T07:12:19;13.20;99.90
31729;DHT22;18309;43.658;1.312;2024-02-15T07:14:47;13.20;99.90
31729;DHT22;18309;43.658;1.312;2024-02-15T07:17:13;13.20;99.90
31729;DHT22;18309;43.658;1.312;2024-02-15T07:19:45;13.20;99.90
31729;DHT22;18309;43.658;1.312;2024-02-15T07:22:11;13.20;99.90
31729;DHT22;18309;43.658;1.312;2024-02-15T07:24:37;13.20;99.90
31729;DHT22;18309;43.658;1.312;2024-02-15T07:27:05;13.20;99.90
31729;DHT22;18309;43.658;1.312;2024-02-15T07:29:31;13.20;99.90
31729;DHT22;18309;43.658;1.312;2024-02-15T07:32:00;13.20;99.90
31729;DHT22;18309;43.658;1.312;2024-02-15T07:34:27;13.20;99.90
31729;DHT22;18309;43.658;1.312;2024-02-15T07:36:53;13.30;99.90
31729;DHT22;18309;43.658;1.312;2024-02-15T07:39:19;13.20;99.90
31729;DHT22;18309;43.658;1.312;2024-02-15T07:41:51;13.20;99.90
31729;DHT22;18309;43.658;1.312;2024-02-15T07:44:17;13.40;99.90
31729;DHT22;18309;43.658;1.312;2024-02-15T07:46:43;14.10;99.90
31729;DHT22;18309;43.658;1.312;2024-02-15T07:49:09;14.00;99.90
31729;DHT22;18309;43.658;1.312;2024-02-15T07:51:35;13.70;99.90
31729;DHT22;18309;43.658;1.312;2024-02-15T07:54:01;13.70;99.90
31729;DHT22;18309;43.658;1.312;2024-02-15T07:56:27;13.70;99.90
31729;DHT22;18309;43.658;1.312;2024-02-15T07:58:53;13.60;99.90
31729;DHT22;18309;43.658;1.312;2024-02-15T08:01:19;13.50;99.90
31729;DHT22;18309;43.658;1.312;2024-02-15T08:03:48;13.50;99.90
31729;DHT22;18309;43.658;1.312;2024-02-15T08:06:15;13.30;99.90
31729;DHT22;18309;43.658;1.312;2024-02-15T08:08:43;13.30;99.90
31729;DHT22;18309;43.658;1.312;2024-02-15T08:11:11;13.10;99.90
31729;DHT22;18309;43.658;1.312;2024-02-15T08:13:44;13.10;99.90
31729;DHT22;18309;43.658;1.312;2024-02-15T08:16:10;13.10;99.90
31729;DHT22;18309;43.658;1.312;2024-02-15T08:18:38;13.10;99.90
31729;DHT22;18309;43.658;1.312;2024-02-15T08:21:05;13.10;99.90
31729;DHT22;18309;43.658;1.312;2024-02-15T08:23:31;13.10;99.90
31729;DHT22;18309;43.658;1.312;2024-02-15T08:25:57;13.10;99.90
31729;DHT22;18309;43.658;1.312;2024-02-15T08:28:23;13.10;99.90
31729;DHT22;18309;43.658;1.312;2024-02-15T08:30:49;13.10;99.90
31729;DHT22;18309;43.658;1.312;2024-02-15T08:33:17;13.10;99.90
31729;DHT22;18309;43.658;1.312;2024-02-15T08:35:44;13.10;99.90
31729;DHT22;18309;43.658;1.312;2024-02-15T08:38:10;13.20;99.90
31729;DHT22;18309;43.658;1.312;2024-02-15T08:40:36;13.20;99.90
31729;DHT22;18309;43.658;1.312;2024-02-15T08:43:02;13.20;99.90
31729;DHT22;18309;43.658;1.312;2024-02-15T08:45:28;13.20;99.90
31729;DHT22;18309;43.658;1.312;2024-02-15T08:47:53;13.10;99.90
31729;DHT22;18309;43.658;1.312;2024-02-15T08:50:19;13.10;99.90
31729;DHT22;18309;43.658;1.312;2024-02-15T08:52:48;13.20;99.90
31729;DHT22;18309;43.658;1.312;2024-02-15T08:55:15;13.20;99.90
31729;DHT22;18309;43.658;1.312;2024-02-15T08:57:41;13.20;99.90
31729;DHT22;18309;43.658;1.312;2024-02-15T09:00:10;13.30;99.90
31729;DHT22;18309;43.658;1.312;2024-02-15T09:05:08;13.40;99.90
31729;DHT22;18309;43.658;1.312;2024-02-15T09:07:34;13.40;99.90
31729;DHT22;18309;43.658;1.312;2024-02-15T09:10:02;13.40;99.90
31729;DHT22;18309;43.658;1.312;2024-02-15T09:12:28;13.50;99.90
31729;DHT22;18309;43.658;1.312;2024-02-15T09:14:54;13.60;99.90
31729;DHT22;18309;43.658;1.312;2024-02-15T09:17:19;13.50;99.90
31729;DHT22;18309;43.658;1.312;2024-02-15T09:19:48;13.50;99.90
31729;DHT22;18309;43.658;1.312;2024-02-15T09:22:17;13.50;99.90
31729;DHT22;18309;43.658;1.312;2024-02-15T09:24:42;13.50;99.90
31729;DHT22;18309;43.658;1.312;2024-02-15T09:27:08;13.50;99.90
31729;DHT22;18309;43.658;1.312;2024-02-15T09:29:37;13.60;99.90
31729;DHT22;18309;43.658;1.312;2024-02-15T09:32:04;13.50;99.90
31729;DHT22;18309;43.658;1.312;2024-02-15T09:34:30;13.60;99.90
31729;DHT22;18309;43.658;1.312;2024-02-15T09:36:55;13.60;99.90
31729;DHT22;18309;43.658;1.312;2024-02-15T09:39:22;13.70;99.90
31729;DHT22;18309;43.658;1.312;2024-02-15T09:41:48;13.80;99.90
31729;DHT22;18309;43.658;1.312;2024-02-15T09:44:21;13.80;99.90
31729;DHT22;18309;43.658;1.312;2024-02-15T09:46:52;13.90;99.90
31729;DHT22;18309;43.658;1.312;2024-02-15T09:49:20;14.00;99.90
31729;DHT22;18309;43.658;1.312;2024-02-15T09:51:47;14.10;99.90
31729;DHT22;18309;43.658;1.312;2024-02-15T09:54:15;14.20;99.90
31729;DHT22;18309;43.658;1.312;2024-02-15T09:56:49;14.30;99.90
31729;DHT22;18309;43.658;1.312;2024-02-15T09:59:16;14.30;99.90
31729;DHT22;18309;43.658;1.312;2024-02-15T10:01:42;14.20;99.90
31729;DHT22;18309;43.658;1.312;2024-02-15T10:04:09;14.20;99.90
31729;DHT22;18309;43.658;1.312;2024-02-15T10:06:41;14.20;99.90
31729;DHT22;18309;43.658;1.312;2024-02-15T10:09:27;14.20;99.90
31729;DHT22;18309;43.658;1.312;2024-02-15T10:11:55;14.20;99.90
31729;DHT22;18309;43.658;1.312;2024-02-15T10:14:22;14.20;99.90
31729;DHT22;18309;43.658;1.312;2024-02-15T10:16:48;14.30;99.90
31729;DHT22;18309;43.658;1.312;2024-02-15T10:19:14;14.30;99.90
31729;DHT22;18309;43.658;1.312;2024-02-15T10:21:41;14.40;99.90
31729;DHT22;18309;43.658;1.312;2024-02-15T10:24:07;14.50;99.90
31729;DHT22;18309;43.658;1.312;2024-02-15T10:26:34;14.50;99.90
31729;DHT22;18309;43.658;1.312;2024-02-15T10:29:11;14.60;99.90
31729;DHT22;18309;43.658;1.312;2024-02-15T10:31:38;14.50;99.90
31729;DHT22;18309;43.658;1.312;2024-02-15T10:34:05;14.50;99.90
31729;DHT22;18309;43.658;1.312;2024-02-15T10:36:31;14.50;99.90
31729;DHT22;18309;43.658;1.312;2024-02-15T10:39:18;14.60;99.90
31729;DHT22;18309;43.658;1.312;2024-02-15T10:41:48;14.60;99.90
31729;DHT22;18309;43.658;1.312;2024-02-15T10:44:19;14.70;99.90
31729;DHT22;18309;43.658;1.312;2024-02-15T10:46:46;14.80;99.90
31729;DHT22;18309;43.658;1.312;2024-02-15T10:49:17;14.90;99.90
31729;DHT22;18309;43.658;1.312;2024-02-15T10:51:44;15.00;99.90
31729;DHT22;18309;43.658;1.312;2024-02-15T10:54:12;15.10;99.90
31729;DHT22;18309;43.658;1.312;2024-02-15T10:56:44;15.20;99.90
31729;DHT22;18309;43.658;1.312;2024-02-15T10:59:18;15.20;99.90
31729;DHT22;18309;43.658;1.312;2024-02-15T11:01:46;15.20;99.90
31729;DHT22;18309;43.658;1.312;2024-02-15T11:04:18;15.20;99.90
31729;DHT22;18309;43.658;1.312;2024-02-15T11:06:48;15.10;99.90
31729;DHT22;18309;43.658;1.312;2024-02-15T11:09:16;15.00;99.90
31729;DHT22;18309;43.658;1.312;2024-02-15T11:11:42;15.00;99.90
31729;DHT22;18309;43.658;1.312;2024-02-15T11:14:31;15.00;99.90
31729;DHT22;18309;43.658;1.312;2024-02-15T11:17:01;15.10;99.90
31729;DHT22;18309;43.658;1.312;2024-02-15T11:22:10;15.00;99.90
31729;DHT22;18309;43.658;1.312;2024-02-15T11:24:37;15.00;99.90
31729;DHT22;18309;43.658;1.312;2024-02-15T11:27:10;15.00;99.90
31729;DHT22;18309;43.658;1.312;2024-02-15T11:29:57;15.10;99.90
31729;DHT22;18309;43.658;1.312;2024-02-15T11:35:12;15.20;99.90
31729;DHT22;18309;43.658;1.312;2024-02-15T11:40:24;15.30;99.90
31729;DHT22;18309;43.658;1.312;2024-02-15T11:42:57;15.40;99.90
31729;DHT22;18309;43.658;1.312;2024-02-15T11:45:25;15.50;99.90
31729;DHT22;18309;43.658;1.312;2024-02-15T11:47:53;15.60;99.90
31729;DHT22;18309;43.658;1.312;2024-02-15T11:50:21;15.60;99.90
31729;DHT22;18309;43.658;1.312;2024-02-15T11:52:48;15.70;99.90
31729;DHT22;18309;43.658;1.312;2024-02-15T11:55:21;15.80;99.90
31729;DHT22;18309;43.658;1.312;2024-02-15T11:58:00;15.90;99.90
31729;DHT22;18309;43.658;1.312;2024-02-15T12:00:35;16.00;99.90
31729;DHT22;18309;43.658;1.312;2024-02-15T12:03:20;15.90;99.90
31729;DHT22;18309;43.658;1.312;2024-02-15T12:06:04;15.90;99.90
31729;DHT22;18309;43.658;1.312;2024-02-15T12:08:50;15.80;99.90
31729;DHT22;18309;43.658;1.312;2024-02-15T12:11:35;15.70;99.90
31729;DHT22;18309;43.658;1.312;2024-02-15T12:14:19;15.50;99.90
31729;DHT22;18309;43.658;1.312;2024-02-15T12:17:11;15.60;99.90
31729;DHT22;18309;43.658;1.312;2024-02-15T12:19:57;15.60;99.90
31729;DHT22;18309;43.658;1.312;2024-02-15T12:22:33;15.60;99.90
31729;DHT22;18309;43.658;1.312;2024-02-15T12:25:01;15.60;99.90
31729;DHT22;18309;43.658;1.312;2024-02-15T12:27:31;15.60;99.90
31729;DHT22;18309;43.658;1.312;2024-02-15T12:29:58;15.60;99.90
31729;DHT22;18309;43.658;1.312;2024-02-15T12:32:25;15.70;99.90
31729;DHT22;18309;43.658;1.312;2024-02-15T12:34:52;15.60;99.90
31729;DHT22;18309;43.658;1.312;2024-02-15T12:37:19;15.70;99.90
31729;DHT22;18309;43.658;1.312;2024-02-15T12:39:49;15.80;99.90
31729;DHT22;18309;43.658;1.312;2024-02-15T12:42:16;15.80;99.90
31729;DHT22;18309;43.658;1.312;2024-02-15T12:44:46;15.90;99.90
31729;DHT22;18309;43.658;1.312;2024-02-15T12:47:22;15.90;99.90
31729;DHT22;18309;43.658;1.312;2024-02-15T12:49:48;15.90;99.90
31729;DHT22;18309;43.658;1.312;2024-02-15T12:52:35;15.80;99.90
31729;DHT22;18309;43.658;1.312;2024-02-15T12:55:27;15.70;99.90
31729;DHT22;18309;43.658;1.312;2024-02-15T12:57:54;15.60;99.90
31729;DHT22;18309;43.658;1.312;2024-02-15T13:00:23;15.80;99.90
31729;DHT22;18309;43.658;1.312;2024-02-15T13:02:54;15.80;99.90
31729;DHT22;18309;43.658;1.312;2024-02-15T13:05:21;15.80;99.90
31729;DHT22;18309;43.658;1.312;2024-02-15T13:07:49;15.80;99.90
31729;DHT22;18309;43.658;1.312;2024-02-15T13:10:15;15.90;99.90
31729;DHT22;18309;43.658;1.312;2024-02-15T13:12:41;15.80;99.90
31729;DHT22;18309;43.658;1.312;2024-02-15T13:15:09;15.90;99.90
31729;DHT22;18309;43.658;1.312;2024-02-15T13:17:39;15.70;99.90
31729;DHT22;18309;43.658;1.312;2024-02-15T13:20:06;15.70;99.90
31729;DHT22;18309;43.658;1.312;2024-02-15T13:22:36;15.70;99.90
31729;DHT22;18309;43.658;1.312;2024-02-15T13:25:07;15.70;99.90
31729;DHT22;18309;43.658;1.312;2024-02-15T13:27:38;15.70;99.90
31729;DHT22;18309;43.658;1.312;2024-02-15T13:30:05;15.70;99.90
31729;DHT22;18309;43.658;1.312;2024-02-15T13:32:41;15.70;99.90
31729;DHT22;18309;43.658;1.312;2024-02-15T13:35:09;15.70;99.90
31729;DHT22;18309;43.658;1.312;2024-02-15T13:37:49;15.70;99.90
31729;DHT22;18309;43.658;1.312;2024-02-15T13:40:18;15.70;99.90
31729;DHT22;18309;43.658;1.312;2024-02-15T13:42:47;15.70;99.90
31729;DHT22;18309;43.658;1.312;2024-02-15T13:45:23;15.60;99.90
31729;DHT22;18309;43.658;1.312;2024-02-15T13:47:51;15.50;99.90
31729;DHT22;18309;43.658;1.312;2024-02-15T13:50:19;15.40;99.90
31729;DHT22;18309;43.658;1.312;2024-02-15T13:52:45;15.30;99.90
31729;DHT22;18309;43.658;1.312;2024-02-15T13:55:16;15.30;99.90
31729;DHT22;18309;43.658;1.312;2024-02-15T13:57:43;15.30;99.90
31729;DHT22;18309;43.658;1.312;2024-02-15T14:00:11;15.20;99.90
31729;DHT22;18309;43.658;1.312;2024-02-15T14:05:16;15.10;99.90
31729;DHT22;18309;43.658;1.312;2024-02-15T14:07:49;15.10;99.90
31729;DHT22;18309;43.658;1.312;2024-02-15T14:10:16;15.10;99.90
31729;DHT22;18309;43.658;1.312;2024-02-15T14:12:44;15.00;99.90
31729;DHT22;18309;43.658;1.312;2024-02-15T14:15:10;15.10;99.90
31729;DHT22;18309;43.658;1.312;2024-02-15T14:17:37;15.10;99.90
31729;DHT22;18309;43.658;1.312;2024-02-15T14:20:03;15.20;99.90
31729;DHT22;18309;43.658;1.312;2024-02-15T14:22:34;15.30;99.90
31729;DHT22;18309;43.658;1.312;2024-02-15T14:25:00;15.40;99.90
31729;DHT22;18309;43.658;1.312;2024-02-15T14:27:25;15.50;99.90
31729;DHT22;18309;43.658;1.312;2024-02-15T14:29:51;15.60;99.90
31729;DHT22;18309;43.658;1.312;2024-02-15T14:32:35;16.10;99.90
31729;DHT22;18309;43.658;1.312;2024-02-15T14:35:19;16.40;99.90
31729;DHT22;18309;43.658;1.312;2024-02-15T14:37:46;16.30;99.90
31729;DHT22;18309;43.658;1.312;2024-02-15T14:40:12;16.40;99.90
31729;DHT22;18309;43.658;1.312;2024-02-15T14:42:41;16.30;99.90
31729;DHT22;18309;43.658;1.312;2024-02-15T14:45:11;16.30;99.90
31729;DHT22;18309;43.658;1.312;2024-02-15T14:47:37;16.20;99.90
31729;DHT22;18309;43.658;1.312;2024-02-15T14:50:03;16.20;99.90
31729;DHT22;18309;43.658;1.312;2024-02-15T14:52:29;16.30;99.90
31729;DHT22;18309;43.658;1.312;2024-02-15T14:54:56;16.40;99.90
31729;DHT22;18309;43.658;1.312;2024-02-15T14:57:22;16.70;99.90
31729;DHT22;18309;43.658;1.312;2024-02-15T14:59:49;16.40;99.90
31729;DHT22;18309;43.658;1.312;2024-02-15T15:02:15;16.40;99.90
31729;DHT22;18309;43.658;1.312;2024-02-15T15:04:41;16.80;99.90
31729;DHT22;18309;43.658;1.312;2024-02-15T15:07:23;16.80;99.90
31729;DHT22;18309;43.658;1.312;2024-02-15T15:10:07;16.90;99.90
31729;DHT22;18309;43.658;1.312;2024-02-15T15:12:52;17.40;99.90
31729;DHT22;18309;43.658;1.312;2024-02-15T15:15:17;17.70;99.90
31729;DHT22;18309;43.658;1.312;2024-02-15T15:17:45;17.50;99.90
31729;DHT22;18309;43.658;1.312;2024-02-15T15:20:12;17.60;99.90
31729;DHT22;18309;43.658;1.312;2024-02-15T15:22:38;17.80;99.90
31729;DHT22;18309;43.658;1.312;2024-02-15T15:25:04;17.70;99.90
31729;DHT22;18309;43.658;1.312;2024-02-15T15:27:30;17.50;99.90
31729;DHT22;18309;43.658;1.312;2024-02-15T15:29:56;17.50;99.90
31729;DHT22;18309;43.658;1.312;2024-02-15T15:32:22;17.30;99.90
31729;DHT22;18309;43.658;1.312;2024-02-15T15:34:48;17.00;99.90
31729;DHT22;18309;43.658;1.312;2024-02-15T15:37:14;16.70;99.90
31729;DHT22;18309;43.658;1.312;2024-02-15T15:39:41;16.60;99.90
31729;DHT22;18309;43.658;1.312;2024-02-15T15:42:07;16.50;99.90
31729;DHT22;18309;43.658;1.312;2024-02-15T15:44:33;16.40;99.90
31729;DHT22;18309;43.658;1.312;2024-02-15T15:46:59;16.20;99.90
31729;DHT22;18309;43.658;1.312;2024-02-15T15:49:26;16.10;99.90
31729;DHT22;18309;43.658;1.312;2024-02-15T15:51:52;15.90;99.90
31729;DHT22;18309;43.658;1.312;2024-02-15T15:54:19;15.90;99.90